sensor_id;sensor_type;location;lat;lon;timestamp;temperature;humidity
42199;DHT22;27868;45.184;5.786;2023-08-06T00:00:38;21.70;61.50
42199;DHT22;27868;45.184;5.786;2023-08-06T00:03:23;21.70;61.40
42199;DHT22;27868;45.184;5.786;2023-08-06T00:06:08;21.70;61.80
42199;DHT22;27868;45.184;5.786;2023-08-06T00:08:52;21.60;61.90
42199;DHT22;27868;45.184;5.786;2023-08-06T00:11:37;21.60;61.90
42199;DHT22;27868;45.184;5.786;2023-08-06T00:14:21;21.50;62.30
42199;DHT22;27868;45.184;5.786;2023-08-06T00:17:06;21.40;62.60
42199;DHT22;27868;45.184;5.786;2023-08-06T00:19:51;21.30;62.60
42199;DHT22;27868;45.184;5.786;2023-08-06T00:22:37;21.30;62.40
42199;DHT22;27868;45.184;5.786;2023-08-06T00:25:21;21.20;62.80
42199;DHT22;27868;45.184;5.786;2023-08-06T00:28:06;21.20;62.70
42199;DHT22;27868;45.184;5.786;2023-08-06T00:30:54;21.10;62.90
42199;DHT22;27868;45.184;5.786;2023-08-06T00:33:39;21.20;62.90
42199;DHT22;27868;45.184;5.786;2023-08-06T00:36:24;21.20;62.20
42199;DHT22;27868;45.184;5.786;2023-08-06T00:39:08;21.30;61.60
42199;DHT22;27868;45.184;5.786;2023-08-06T00:41:53;21.40;61.70
42199;DHT22;27868;45.184;5.786;2023-08-06T00:44:39;21.40;61.70
42199;DHT22;27868;45.184;5.786;2023-08-06T00:47:24;21.30;62.00
42199;DHT22;27868;45.184;5.786;2023-08-06T00:50:09;21.30;61.90
42199;DHT22;27868;45.184;5.786;2023-08-06T00:52:54;21.30;61.60
42199;DHT22;27868;45.184;5.786;2023-08-06T00:55:39;21.30;61.40
42199;DHT22;27868;45.184;5.786;2023-08-06T00:58:24;21.30;61.60
42199;DHT22;27868;45.184;5.786;2023-08-06T01:01:09;21.30;61.80
42199;DHT22;27868;45.184;5.786;2023-08-06T01:03:54;21.20;61.90
42199;DHT22;27868;45.184;5.786;2023-08-06T01:06:48;21.30;61.50
42199;DHT22;27868;45.184;5.786;2023-08-06T01:13:16;21.30;61.10
42199;DHT22;27868;45.184;5.786;2023-08-06T01:16:03;21.30;61.00
42199;DHT22;27868;45.184;5.786;2023-08-06T01:18:50;21.30;60.80
42199;DHT22;27868;45.184;5.786;2023-08-06T01:21:34;21.20;61.50
42199;DHT22;27868;45.184;5.786;2023-08-06T01:24:21;21.10;62.10
42199;DHT22;27868;45.184;5.786;2023-08-06T01:27:14;20.90;62.40
42199;DHT22;27868;45.184;5.786;2023-08-06T01:30:12;20.90;62.30
42199;DHT22;27868;45.184;5.786;2023-08-06T01:33:04;20.90;62.40
42199;DHT22;27868;45.184;5.786;2023-08-06T01:35:49;20.90;62.10
42199;DHT22;27868;45.184;5.786;2023-08-06T01:38:35;21.00;62.00
42199;DHT22;27868;45.184;5.786;2023-08-06T01:41:20;21.00;62.00
42199;DHT22;27868;45.184;5.786;2023-08-06T01:44:05;21.00;61.60
42199;DHT22;27868;45.184;5.786;2023-08-06T01:46:50;21.00;61.00
42199;DHT22;27868;45.184;5.786;2023-08-06T01:49:35;20.90;60.70
42199;DHT22;27868;45.184;5.786;2023-08-06T01:52:19;20.90;61.60
42199;DHT22;27868;45.184;5.786;2023-08-06T01:55:04;20.80;61.80
42199;DHT22;27868;45.184;5.786;2023-08-06T01:57:49;20.90;61.70
42199;DHT22;27868;45.184;5.786;2023-08-06T02:00:33;20.80;61.90
42199;DHT22;27868;45.184;5.786;2023-08-06T02:03:18;20.80;61.80
42199;DHT22;27868;45.184;5.786;2023-08-06T02:06:02;20.90;61.70
42199;DHT22;27868;45.184;5.786;2023-08-06T02:08:47;20.90;61.40
42199;DHT22;27868;45.184;5.786;2023-08-06T02:11:31;20.80;61.40
42199;DHT22;27868;45.184;5.786;2023-08-06T02:14:16;20.80;61.60
42199;DHT22;27868;45.184;5.786;2023-08-06T02:17:01;20.80;61.10
42199;DHT22;27868;45.184;5.786;2023-08-06T02:19:45;20.80;61.10
42199;DHT22;27868;45.184;5.786;2023-08-06T02:22:30;20.90;61.00
42199;DHT22;27868;45.184;5.786;2023-08-06T02:25:14;20.90;60.90
42199;DHT22;27868;45.184;5.786;2023-08-06T02:27:59;20.90;60.80
42199;DHT22;27868;45.184;5.786;2023-08-06T02:30:52;20.90;60.70
42199;DHT22;27868;45.184;5.786;2023-08-06T02:33:37;20.90;61.50
42199;DHT22;27868;45.184;5.786;2023-08-06T02:36:21;20.90;61.20
42199;DHT22;27868;45.184;5.786;2023-08-06T02:39:06;20.90;60.40
42199;DHT22;27868;45.184;5.786;2023-08-06T02:41:51;20.90;60.10
42199;DHT22;27868;45.184;5.786;2023-08-06T02:44:35;20.80;59.90
42199;DHT22;27868;45.184;5.786;2023-08-06T02:47:20;20.80;57.80
42199;DHT22;27868;45.184;5.786;2023-08-06T02:50:06;20.80;55.60
42199;DHT22;27868;45.184;5.786;2023-08-06T02:52:50;20.80;56.00
42199;DHT22;27868;45.184;5.786;2023-08-06T02:55:35;20.80;55.60
42199;DHT22;27868;45.184;5.786;2023-08-06T02:58:20;20.90;55.40
42199;DHT22;27868;45.184;5.786;2023-08-06T03:01:07;20.90;55.20
42199;DHT22;27868;45.184;5.786;2023-08-06T03:03:52;20.80;56.30
42199;DHT22;27868;45.184;5.786;2023-08-06T03:06:36;20.90;55.70
42199;DHT22;27868;45.184;5.786;2023-08-06T03:09:21;20.80;56.10
42199;DHT22;27868;45.184;5.786;2023-08-06T03:12:06;20.80;56.10
42199;DHT22;27868;45.184;5.786;2023-08-06T03:14:50;20.80;56.50
42199;DHT22;27868;45.184;5.786;2023-08-06T03:17:35;20.80;56.70
42199;DHT22;27868;45.184;5.786;2023-08-06T03:20:19;20.80;56.40
42199;DHT22;27868;45.184;5.786;2023-08-06T03:23:04;20.80;56.40
42199;DHT22;27868;45.184;5.786;2023-08-06T03:25:48;20.80;55.80
42199;DHT22;27868;45.184;5.786;2023-08-06T03:28:33;20.80;56.10
42199;DHT22;27868;45.184;5.786;2023-08-06T03:31:18;20.70;56.30
42199;DHT22;27868;45.184;5.786;2023-08-06T03:34:02;20.70;56.40
42199;DHT22;27868;45.184;5.786;2023-08-06T03:36:47;20.70;56.40
42199;DHT22;27868;45.184;5.786;2023-08-06T03:39:31;20.80;56.10
42199;DHT22;27868;45.184;5.786;2023-08-06T03:42:16;20.80;56.30
42199;DHT22;27868;45.184;5.786;2023-08-06T03:45:00;20.80;56.60
42199;DHT22;27868;45.184;5.786;2023-08-06T03:47:45;20.70;56.60
42199;DHT22;27868;45.184;5.786;2023-08-06T03:50:29;20.70;56.70
42199;DHT22;27868;45.184;5.786;2023-08-06T03:53:14;20.70;57.40
42199;DHT22;27868;45.184;5.786;2023-08-06T03:55:58;20.70;56.90
42199;DHT22;27868;45.184;5.786;2023-08-06T03:58:44;20.70;56.90
42199;DHT22;27868;45.184;5.786;2023-08-06T04:01:29;20.80;57.20
42199;DHT22;27868;45.184;5.786;2023-08-06T04:04:13;20.80;57.40
42199;DHT22;27868;45.184;5.786;2023-08-06T04:06:58;20.80;57.70
42199;DHT22;27868;45.184;5.786;2023-08-06T04:09:53;20.70;58.10
42199;DHT22;27868;45.184;5.786;2023-08-06T04:12:38;20.70;58.00
42199;DHT22;27868;45.184;5.786;2023-08-06T04:15:23;20.70;58.30
42199;DHT22;27868;45.184;5.786;2023-08-06T04:18:08;20.80;58.30
42199;DHT22;27868;45.184;5.786;2023-08-06T04:20:53;20.80;58.10
42199;DHT22;27868;45.184;5.786;2023-08-06T04:23:39;20.70;58.50
42199;DHT22;27868;45.184;5.786;2023-08-06T04:26:24;20.70;58.30
42199;DHT22;27868;45.184;5.786;2023-08-06T04:29:08;20.70;58.40
42199;DHT22;27868;45.184;5.786;2023-08-06T04:31:53;20.70;58.60
42199;DHT22;27868;45.184;5.786;2023-08-06T04:34:37;20.80;58.80
42199;DHT22;27868;45.184;5.786;2023-08-06T04:37:22;20.80;58.60
42199;DHT22;27868;45.184;5.786;2023-08-06T04:40:07;20.70;58.70
42199;DHT22;27868;45.184;5.786;2023-08-06T04:42:52;20.70;58.50
42199;DHT22;27868;45.184;5.786;2023-08-06T04:45:37;20.70;58.40
42199;DHT22;27868;45.184;5.786;2023-08-06T04:48:22;20.70;58.20
42199;DHT22;27868;45.184;5.786;2023-08-06T04:51:07;20.70;58.00
42199;DHT22;27868;45.184;5.786;2023-08-06T04:53:52;20.70;57.40
42199;DHT22;27868;45.184;5.786;2023-08-06T04:56:36;20.70;57.30
42199;DHT22;27868;45.184;5.786;2023-08-06T04:59:21;20.70;57.00
42199;DHT22;27868;45.184;5.786;2023-08-06T05:02:06;20.70;56.20
42199;DHT22;27868;45.184;5.786;2023-08-06T05:04:50;20.70;56.40
42199;DHT22;27868;45.184;5.786;2023-08-06T05:07:35;20.70;54.70
42199;DHT22;27868;45.184;5.786;2023-08-06T05:10:19;20.70;55.00
42199;DHT22;27868;45.184;5.786;2023-08-06T05:13:04;20.70;54.90
42199;DHT22;27868;45.184;5.786;2023-08-06T05:15:49;20.70;54.10
42199;DHT22;27868;45.184;5.786;2023-08-06T05:18:34;20.70;54.50
42199;DHT22;27868;45.184;5.786;2023-08-06T05:21:19;20.70;54.90
42199;DHT22;27868;45.184;5.786;2023-08-06T05:24:03;20.60;56.10
42199;DHT22;27868;45.184;5.786;2023-08-06T05:26:48;20.60;55.50
42199;DHT22;27868;45.184;5.786;2023-08-06T05:29:33;20.60;55.20
42199;DHT22;27868;45.184;5.786;2023-08-06T05:32:17;20.60;55.20
42199;DHT22;27868;45.184;5.786;2023-08-06T05:35:02;20.60;55.20
42199;DHT22;27868;45.184;5.786;2023-08-06T05:37:47;20.60;55.20
42199;DHT22;27868;45.184;5.786;2023-08-06T05:40:33;20.60;55.40
42199;DHT22;27868;45.184;5.786;2023-08-06T05:43:18;20.50;55.10
42199;DHT22;27868;45.184;5.786;2023-08-06T05:46:02;20.60;55.00
42199;DHT22;27868;45.184;5.786;2023-08-06T05:48:48;20.60;55.00
42199;DHT22;27868;45.184;5.786;2023-08-06T05:51:34;20.60;54.60
42199;DHT22;27868;45.184;5.786;2023-08-06T05:54:19;20.50;54.60
42199;DHT22;27868;45.184;5.786;2023-08-06T05:57:04;20.50;55.40
42199;DHT22;27868;45.184;5.786;2023-08-06T05:59:49;20.50;55.40
42199;DHT22;27868;45.184;5.786;2023-08-06T06:02:33;20.50;55.90
42199;DHT22;27868;45.184;5.786;2023-08-06T06:05:18;20.60;55.40
42199;DHT22;27868;45.184;5.786;2023-08-06T06:08:02;20.60;55.20
42199;DHT22;27868;45.184;5.786;2023-08-06T06:10:47;20.60;55.30
42199;DHT22;27868;45.184;5.786;2023-08-06T06:13:32;20.70;55.60
42199;DHT22;27868;45.184;5.786;2023-08-06T06:16:16;20.60;55.50
42199;DHT22;27868;45.184;5.786;2023-08-06T06:19:01;20.70;56.70
42199;DHT22;27868;45.184;5.786;2023-08-06T06:21:46;20.70;56.70
42199;DHT22;27868;45.184;5.786;2023-08-06T06:24:30;20.70;56.70
42199;DHT22;27868;45.184;5.786;2023-08-06T06:27:15;20.80;57.40
42199;DHT22;27868;45.184;5.786;2023-08-06T06:29:59;20.80;58.90
42199;DHT22;27868;45.184;5.786;2023-08-06T06:32:43;20.80;58.90
42199;DHT22;27868;45.184;5.786;2023-08-06T06:35:28;20.90;59.00
42199;DHT22;27868;45.184;5.786;2023-08-06T06:38:13;20.80;59.00
42199;DHT22;27868;45.184;5.786;2023-08-06T06:40:57;20.90;59.70
42199;DHT22;27868;45.184;5.786;2023-08-06T06:43:42;20.90;59.60
42199;DHT22;27868;45.184;5.786;2023-08-06T06:46:26;20.80;58.50
42199;DHT22;27868;45.184;5.786;2023-08-06T06:49:11;20.90;58.40
42199;DHT22;27868;45.184;5.786;2023-08-06T06:51:56;21.00;58.20
42199;DHT22;27868;45.184;5.786;2023-08-06T06:54:40;21.10;58.00
42199;DHT22;27868;45.184;5.786;2023-08-06T06:57:24;21.00;58.10
42199;DHT22;27868;45.184;5.786;2023-08-06T07:00:09;21.10;57.80
42199;DHT22;27868;45.184;5.786;2023-08-06T07:02:54;21.10;57.60
42199;DHT22;27868;45.184;5.786;2023-08-06T07:05:38;21.20;56.80
42199;DHT22;27868;45.184;5.786;2023-08-06T07:08:23;21.20;57.30
42199;DHT22;27868;45.184;5.786;2023-08-06T07:11:07;21.10;57.50
42199;DHT22;27868;45.184;5.786;2023-08-06T07:13:58;21.10;57.20
42199;DHT22;27868;45.184;5.786;2023-08-06T07:16:43;21.00;55.70
42199;DHT22;27868;45.184;5.786;2023-08-06T07:19:27;21.00;54.00
42199;DHT22;27868;45.184;5.786;2023-08-06T07:22:12;21.00;53.70
42199;DHT22;27868;45.184;5.786;2023-08-06T07:24:56;21.00;54.10
42199;DHT22;27868;45.184;5.786;2023-08-06T07:27:41;20.90;53.50
42199;DHT22;27868;45.184;5.786;2023-08-06T07:30:25;20.90;53.00
42199;DHT22;27868;45.184;5.786;2023-08-06T07:33:10;20.90;53.60
42199;DHT22;27868;45.184;5.786;2023-08-06T07:35:54;20.90;54.10
42199;DHT22;27868;45.184;5.786;2023-08-06T07:38:39;20.90;53.90
42199;DHT22;27868;45.184;5.786;2023-08-06T07:41:24;20.90;53.60
42199;DHT22;27868;45.184;5.786;2023-08-06T07:44:09;20.90;54.00
42199;DHT22;27868;45.184;5.786;2023-08-06T07:46:53;20.90;53.80
42199;DHT22;27868;45.184;5.786;2023-08-06T07:49:38;21.00;53.60
42199;DHT22;27868;45.184;5.786;2023-08-06T07:52:22;20.90;52.90
42199;DHT22;27868;45.184;5.786;2023-08-06T07:55:07;21.00;52.70
42199;DHT22;27868;45.184;5.786;2023-08-06T07:57:52;21.00;52.80
42199;DHT22;27868;45.184;5.786;2023-08-06T08:00:36;21.00;53.40
42199;DHT22;27868;45.184;5.786;2023-08-06T08:03:22;21.10;53.50
42199;DHT22;27868;45.184;5.786;2023-08-06T08:06:06;21.10;53.60
42199;DHT22;27868;45.184;5.786;2023-08-06T08:08:51;21.10;53.20
42199;DHT22;27868;45.184;5.786;2023-08-06T08:11:36;21.20;53.20
42199;DHT22;27868;45.184;5.786;2023-08-06T08:14:20;21.20;52.80
42199;DHT22;27868;45.184;5.786;2023-08-06T08:17:05;21.20;54.10
42199;DHT22;27868;45.184;5.786;2023-08-06T08:19:50;21.10;55.30
42199;DHT22;27868;45.184;5.786;2023-08-06T08:22:34;21.20;55.90
42199;DHT22;27868;45.184;5.786;2023-08-06T08:25:19;21.30;55.90
42199;DHT22;27868;45.184;5.786;2023-08-06T08:28:03;21.50;53.90
42199;DHT22;27868;45.184;5.786;2023-08-06T08:30:48;21.60;53.40
42199;DHT22;27868;45.184;5.786;2023-08-06T08:33:33;21.60;53.80
42199;DHT22;27868;45.184;5.786;2023-08-06T08:36:18;21.70;53.90
42199;DHT22;27868;45.184;5.786;2023-08-06T08:39:03;21.80;54.30
42199;DHT22;27868;45.184;5.786;2023-08-06T08:41:49;21.80;53.70
42199;DHT22;27868;45.184;5.786;2023-08-06T08:44:34;21.90;53.70
42199;DHT22;27868;45.184;5.786;2023-08-06T08:47:22;22.00;53.60
42199;DHT22;27868;45.184;5.786;2023-08-06T08:50:09;22.00;53.60
42199;DHT22;27868;45.184;5.786;2023-08-06T08:52:58;22.10;53.40
42199;DHT22;27868;45.184;5.786;2023-08-06T08:55:46;22.10;52.50
42199;DHT22;27868;45.184;5.786;2023-08-06T08:58:32;22.10;52.80
42199;DHT22;27868;45.184;5.786;2023-08-06T09:01:17;22.10;53.80
42199;DHT22;27868;45.184;5.786;2023-08-06T09:04:02;22.10;54.20
42199;DHT22;27868;45.184;5.786;2023-08-06T09:06:50;22.10;54.30
42199;DHT22;27868;45.184;5.786;2023-08-06T09:09:35;22.10;53.60
42199;DHT22;27868;45.184;5.786;2023-08-06T09:12:22;22.20;54.10
42199;DHT22;27868;45.184;5.786;2023-08-06T09:15:07;22.30;54.60
42199;DHT22;27868;45.184;5.786;2023-08-06T09:17:55;22.40;53.90
42199;DHT22;27868;45.184;5.786;2023-08-06T09:20:40;22.40;54.60
42199;DHT22;27868;45.184;5.786;2023-08-06T09:23:31;22.40;55.00
42199;DHT22;27868;45.184;5.786;2023-08-06T09:26:17;22.50;54.90
42199;DHT22;27868;45.184;5.786;2023-08-06T09:29:05;22.60;54.20
42199;DHT22;27868;45.184;5.786;2023-08-06T09:31:50;22.50;53.70
42199;DHT22;27868;45.184;5.786;2023-08-06T09:34:42;22.60;53.80
42199;DHT22;27868;45.184;5.786;2023-08-06T09:37:35;22.70;53.20
42199;DHT22;27868;45.184;5.786;2023-08-06T09:40:25;22.70;53.60
42199;DHT22;27868;45.184;5.786;2023-08-06T09:43:11;22.70;54.00
42199;DHT22;27868;45.184;5.786;2023-08-06T09:45:57;22.80;53.30
42199;DHT22;27868;45.184;5.786;2023-08-06T09:48:45;22.80;53.90
42199;DHT22;27868;45.184;5.786;2023-08-06T09:51:30;22.90;54.40
42199;DHT22;27868;45.184;5.786;2023-08-06T09:54:15;23.00;53.30
42199;DHT22;27868;45.184;5.786;2023-08-06T09:57:00;23.00;53.90
42199;DHT22;27868;45.184;5.786;2023-08-06T09:59:46;23.10;53.90
42199;DHT22;27868;45.184;5.786;2023-08-06T10:02:32;23.20;54.00
42199;DHT22;27868;45.184;5.786;2023-08-06T10:05:18;23.20;53.30
42199;DHT22;27868;45.184;5.786;2023-08-06T10:08:03;23.20;53.60
42199;DHT22;27868;45.184;5.786;2023-08-06T10:10:51;23.20;53.30
42199;DHT22;27868;45.184;5.786;2023-08-06T10:13:36;23.10;53.40
42199;DHT22;27868;45.184;5.786;2023-08-06T10:16:22;23.10;53.10
42199;DHT22;27868;45.184;5.786;2023-08-06T10:19:10;23.20;53.10
42199;DHT22;27868;45.184;5.786;2023-08-06T10:22:19;23.30;53.20
42199;DHT22;27868;45.184;5.786;2023-08-06T10:25:04;23.40;52.30
42199;DHT22;27868;45.184;5.786;2023-08-06T10:30:33;23.60;51.30
42199;DHT22;27868;45.184;5.786;2023-08-06T10:33:20;23.60;51.50
42199;DHT22;27868;45.184;5.786;2023-08-06T10:36:08;23.60;52.10
42199;DHT22;27868;45.184;5.786;2023-08-06T10:38:57;23.70;51.90
42199;DHT22;27868;45.184;5.786;2023-08-06T10:41:42;23.70;51.60
42199;DHT22;27868;45.184;5.786;2023-08-06T10:44:28;23.70;51.90
42199;DHT22;27868;45.184;5.786;2023-08-06T10:47:26;23.80;51.20
42199;DHT22;27868;45.184;5.786;2023-08-06T10:50:17;23.80;50.50
42199;DHT22;27868;45.184;5.786;2023-08-06T10:53:06;23.80;50.10
42199;DHT22;27868;45.184;5.786;2023-08-06T10:55:51;23.70;50.40
42199;DHT22;27868;45.184;5.786;2023-08-06T10:58:35;23.70;50.10
42199;DHT22;27868;45.184;5.786;2023-08-06T11:01:22;23.70;50.20
42199;DHT22;27868;45.184;5.786;2023-08-06T11:04:07;23.70;50.40
42199;DHT22;27868;45.184;5.786;2023-08-06T11:06:52;23.70;51.30
42199;DHT22;27868;45.184;5.786;2023-08-06T11:09:37;23.80;50.90
42199;DHT22;27868;45.184;5.786;2023-08-06T11:12:22;23.80;49.70
42199;DHT22;27868;45.184;5.786;2023-08-06T11:15:07;23.90;48.90
42199;DHT22;27868;45.184;5.786;2023-08-06T11:17:52;24.00;48.90
42199;DHT22;27868;45.184;5.786;2023-08-06T11:20:37;24.20;48.10
42199;DHT22;27868;45.184;5.786;2023-08-06T11:23:21;24.20;48.20
42199;DHT22;27868;45.184;5.786;2023-08-06T11:26:06;24.20;47.50
42199;DHT22;27868;45.184;5.786;2023-08-06T11:28:51;24.30;46.50
42199;DHT22;27868;45.184;5.786;2023-08-06T11:31:36;24.20;47.90
42199;DHT22;27868;45.184;5.786;2023-08-06T11:34:20;24.30;49.00
42199;DHT22;27868;45.184;5.786;2023-08-06T11:37:06;24.20;48.80
42199;DHT22;27868;45.184;5.786;2023-08-06T11:39:51;24.30;49.50
42199;DHT22;27868;45.184;5.786;2023-08-06T11:42:36;24.20;49.30
42199;DHT22;27868;45.184;5.786;2023-08-06T11:45:24;24.30;47.10
42199;DHT22;27868;45.184;5.786;2023-08-06T11:48:09;24.40;48.20
42199;DHT22;27868;45.184;5.786;2023-08-06T11:50:57;24.70;46.30
42199;DHT22;27868;45.184;5.786;2023-08-06T11:53:48;24.90;47.20
42199;DHT22;27868;45.184;5.786;2023-08-06T11:56:33;24.90;46.00
42199;DHT22;27868;45.184;5.786;2023-08-06T11:59:19;25.00;45.40
42199;DHT22;27868;45.184;5.786;2023-08-06T12:02:10;25.30;45.20
42199;DHT22;27868;45.184;5.786;2023-08-06T12:05:05;25.60;45.40
42199;DHT22;27868;45.184;5.786;2023-08-06T12:07:58;25.60;44.90
42199;DHT22;27868;45.184;5.786;2023-08-06T12:10:42;25.40;44.00
42199;DHT22;27868;45.184;5.786;2023-08-06T12:13:27;25.30;44.50
42199;DHT22;27868;45.184;5.786;2023-08-06T12:16:11;25.30;45.40
42199;DHT22;27868;45.184;5.786;2023-08-06T12:18:58;25.40;44.60
42199;DHT22;27868;45.184;5.786;2023-08-06T12:21:42;25.40;44.00
42199;DHT22;27868;45.184;5.786;2023-08-06T12:24:27;25.10;44.80
42199;DHT22;27868;45.184;5.786;2023-08-06T12:27:16;25.00;46.00
42199;DHT22;27868;45.184;5.786;2023-08-06T12:30:01;25.10;45.70
42199;DHT22;27868;45.184;5.786;2023-08-06T12:32:45;25.20;44.30
42199;DHT22;27868;45.184;5.786;2023-08-06T12:35:29;25.10;42.70
42199;DHT22;27868;45.184;5.786;2023-08-06T12:38:14;25.30;43.10
42199;DHT22;27868;45.184;5.786;2023-08-06T12:40:59;25.30;43.30
42199;DHT22;27868;45.184;5.786;2023-08-06T12:43:43;25.20;43.70
42199;DHT22;27868;45.184;5.786;2023-08-06T12:46:28;25.00;43.00
42199;DHT22;27868;45.184;5.786;2023-08-06T12:49:12;25.00;43.10
42199;DHT22;27868;45.184;5.786;2023-08-06T12:51:57;25.00;42.90
42199;DHT22;27868;45.184;5.786;2023-08-06T12:54:44;25.10;43.40
42199;DHT22;27868;45.184;5.786;2023-08-06T12:57:30;25.10;43.50
42199;DHT22;27868;45.184;5.786;2023-08-06T13:00:15;25.20;43.60
42199;DHT22;27868;45.184;5.786;2023-08-06T13:02:59;25.00;44.10
42199;DHT22;27868;45.184;5.786;2023-08-06T13:05:44;24.90;45.20
42199;DHT22;27868;45.184;5.786;2023-08-06T13:08:29;24.80;43.80
42199;DHT22;27868;45.184;5.786;2023-08-06T13:11:14;24.60;44.40
42199;DHT22;27868;45.184;5.786;2023-08-06T13:14:12;24.70;44.80
42199;DHT22;27868;45.184;5.786;2023-08-06T13:16:56;24.50;45.50
42199;DHT22;27868;45.184;5.786;2023-08-06T13:19:41;24.50;45.40
42199;DHT22;27868;45.184;5.786;2023-08-06T13:22:25;24.50;45.50
42199;DHT22;27868;45.184;5.786;2023-08-06T13:25:10;24.40;45.30
42199;DHT22;27868;45.184;5.786;2023-08-06T13:27:54;24.30;44.60
42199;DHT22;27868;45.184;5.786;2023-08-06T13:30:39;24.30;45.50
42199;DHT22;27868;45.184;5.786;2023-08-06T13:33:26;24.30;46.00
42199;DHT22;27868;45.184;5.786;2023-08-06T13:36:11;24.20;45.10
42199;DHT22;27868;45.184;5.786;2023-08-06T13:38:56;24.10;45.00
42199;DHT22;27868;45.184;5.786;2023-08-06T13:41:40;24.20;45.60
42199;DHT22;27868;45.184;5.786;2023-08-06T13:44:25;24.10;44.00
42199;DHT22;27868;45.184;5.786;2023-08-06T13:47:10;24.10;44.80
42199;DHT22;27868;45.184;5.786;2023-08-06T13:49:54;24.00;45.70
42199;DHT22;27868;45.184;5.786;2023-08-06T13:52:39;23.90;45.60
42199;DHT22;27868;45.184;5.786;2023-08-06T13:55:24;23.90;46.20
42199;DHT22;27868;45.184;5.786;2023-08-06T13:58:08;23.70;46.20
42199;DHT22;27868;45.184;5.786;2023-08-06T14:00:53;23.80;46.40
42199;DHT22;27868;45.184;5.786;2023-08-06T14:03:38;23.90;47.40
42199;DHT22;27868;45.184;5.786;2023-08-06T14:06:23;24.00;46.50
42199;DHT22;27868;45.184;5.786;2023-08-06T14:09:08;23.90;45.20
42199;DHT22;27868;45.184;5.786;2023-08-06T14:11:52;23.90;45.90
42199;DHT22;27868;45.184;5.786;2023-08-06T14:14:37;24.10;46.50
42199;DHT22;27868;45.184;5.786;2023-08-06T14:17:22;24.00;46.80
42199;DHT22;27868;45.184;5.786;2023-08-06T14:20:07;23.90;47.40
42199;DHT22;27868;45.184;5.786;2023-08-06T14:22:56;24.00;48.10
42199;DHT22;27868;45.184;5.786;2023-08-06T14:25:40;24.00;47.40
42199;DHT22;27868;45.184;5.786;2023-08-06T14:28:25;24.20;47.90
42199;DHT22;27868;45.184;5.786;2023-08-06T14:31:09;24.20;48.10
42199;DHT22;27868;45.184;5.786;2023-08-06T14:33:54;24.20;46.80
42199;DHT22;27868;45.184;5.786;2023-08-06T14:36:38;24.10;46.50
42199;DHT22;27868;45.184;5.786;2023-08-06T14:39:24;24.10;47.10
42199;DHT22;27868;45.184;5.786;2023-08-06T14:42:08;24.00;47.60
42199;DHT22;27868;45.184;5.786;2023-08-06T14:44:52;24.10;48.00
42199;DHT22;27868;45.184;5.786;2023-08-06T14:47:37;23.80;47.90
42199;DHT22;27868;45.184;5.786;2023-08-06T14:50:21;23.70;48.00
42199;DHT22;27868;45.184;5.786;2023-08-06T14:53:06;23.60;49.10
42199;DHT22;27868;45.184;5.786;2023-08-06T14:55:50;23.50;49.00
42199;DHT22;27868;45.184;5.786;2023-08-06T14:58:35;23.50;48.70
42199;DHT22;27868;45.184;5.786;2023-08-06T15:01:19;23.60;49.50
42199;DHT22;27868;45.184;5.786;2023-08-06T15:04:04;23.50;49.80
42199;DHT22;27868;45.184;5.786;2023-08-06T15:06:48;23.60;49.70
42199;DHT22;27868;45.184;5.786;2023-08-06T15:09:33;23.60;49.80
42199;DHT22;27868;45.184;5.786;2023-08-06T15:12:18;23.60;49.70
42199;DHT22;27868;45.184;5.786;2023-08-06T15:15:06;23.60;49.70
42199;DHT22;27868;45.184;5.786;2023-08-06T15:17:52;23.50;49.90
42199;DHT22;27868;45.184;5.786;2023-08-06T15:20:36;23.60;50.40
42199;DHT22;27868;45.184;5.786;2023-08-06T15:23:21;23.60;50.30
42199;DHT22;27868;45.184;5.786;2023-08-06T15:26:06;23.60;49.70
42199;DHT22;27868;45.184;5.786;2023-08-06T15:28:51;23.50;49.00
42199;DHT22;27868;45.184;5.786;2023-08-06T15:31:37;23.60;49.30
42199;DHT22;27868;45.184;5.786;2023-08-06T15:34:22;23.60;49.40
42199;DHT22;27868;45.184;5.786;2023-08-06T15:37:07;23.50;49.30
42199;DHT22;27868;45.184;5.786;2023-08-06T15:39:52;23.60;49.60
42199;DHT22;27868;45.184;5.786;2023-08-06T15:42:37;23.50;49.20
42199;DHT22;27868;45.184;5.786;2023-08-06T15:45:22;23.50;49.60
42199;DHT22;27868;45.184;5.786;2023-08-06T15:48:06;23.50;49.90
42199;DHT22;27868;45.184;5.786;2023-08-06T15:50:56;23.40;49.40
42199;DHT22;27868;45.184;5.786;2023-08-06T15:53:41;23.40;49.90
42199;DHT22;27868;45.184;5.786;2023-08-06T15:56:26;23.20;50.30
42199;DHT22;27868;45.184;5.786;2023-08-06T15:59:26;23.30;50.40
42199;DHT22;27868;45.184;5.786;2023-08-06T16:02:11;23.20;49.70
42199;DHT22;27868;45.184;5.786;2023-08-06T16:04:58;23.30;50.50
42199;DHT22;27868;45.184;5.786;2023-08-06T16:07:43;23.30;50.40
42199;DHT22;27868;45.184;5.786;2023-08-06T16:10:28;23.30;48.80
42199;DHT22;27868;45.184;5.786;2023-08-06T16:13:12;23.10;47.80
42199;DHT22;27868;45.184;5.786;2023-08-06T16:15:57;23.20;48.50
42199;DHT22;27868;45.184;5.786;2023-08-06T16:18:41;23.10;48.80
42199;DHT22;27868;45.184;5.786;2023-08-06T16:21:26;23.10;50.10
42199;DHT22;27868;45.184;5.786;2023-08-06T16:24:10;23.00;51.30
42199;DHT22;27868;45.184;5.786;2023-08-06T16:26:55;23.00;51.40
42199;DHT22;27868;45.184;5.786;2023-08-06T16:29:39;22.90;51.80
42199;DHT22;27868;45.184;5.786;2023-08-06T16:32:24;22.90;52.70
42199;DHT22;27868;45.184;5.786;2023-08-06T16:35:09;22.90;52.50
42199;DHT22;27868;45.184;5.786;2023-08-06T16:37:54;23.00;52.40
42199;DHT22;27868;45.184;5.786;2023-08-06T16:40:39;23.00;52.00
42199;DHT22;27868;45.184;5.786;2023-08-06T16:43:24;22.90;52.10
42199;DHT22;27868;45.184;5.786;2023-08-06T16:46:08;22.90;52.00
42199;DHT22;27868;45.184;5.786;2023-08-06T16:48:52;22.80;52.40
42199;DHT22;27868;45.184;5.786;2023-08-06T16:51:37;22.70;52.50
42199;DHT22;27868;45.184;5.786;2023-08-06T16:54:21;22.80;52.90
42199;DHT22;27868;45.184;5.786;2023-08-06T16:57:06;22.90;52.70
42199;DHT22;27868;45.184;5.786;2023-08-06T16:59:50;22.90;52.80
42199;DHT22;27868;45.184;5.786;2023-08-06T17:02:35;22.90;51.80
42199;DHT22;27868;45.184;5.786;2023-08-06T17:05:19;22.90;51.50
42199;DHT22;27868;45.184;5.786;2023-08-06T17:08:04;22.90;52.00
42199;DHT22;27868;45.184;5.786;2023-08-06T17:10:48;22.80;52.10
42199;DHT22;27868;45.184;5.786;2023-08-06T17:13:33;22.80;52.40
42199;DHT22;27868;45.184;5.786;2023-08-06T17:16:18;22.80;52.10
42199;DHT22;27868;45.184;5.786;2023-08-06T17:19:03;22.80;52.30
42199;DHT22;27868;45.184;5.786;2023-08-06T17:21:47;22.80;52.00
42199;DHT22;27868;45.184;5.786;2023-08-06T17:24:32;22.90;51.80
42199;DHT22;27868;45.184;5.786;2023-08-06T17:27:16;22.80;51.90
42199;DHT22;27868;45.184;5.786;2023-08-06T17:30:01;22.70;51.70